createdAt,value
2022-07-29T00:00:32.797Z,100827.63
2022-07-29T00:03:07.412Z,100831.94
2022-07-29T00:05:38.136Z,100829.77
2022-07-29T00:08:12.412Z,100832.63
2022-07-29T00:10:43.369Z,100840.73
2022-07-29T00:13:14.031Z,100839.20
2022-07-29T00:15:44.699Z,100840.40
2022-07-29T00:18:15.331Z,100839.80
2022-07-29T00:20:46.072Z,100841.63
2022-07-29T00:23:16.799Z,100842.06
2022-07-29T00:25:47.494Z,100842.70
2022-07-29T00:28:18.131Z,100841.89
2022-07-29T00:30:48.760Z,100840.11
2022-07-29T00:33:19.383Z,100847.84
2022-07-29T00:35:50.142Z,100848.75
2022-07-29T00:38:21.260Z,100850.94
2022-07-29T00:40:51.965Z,100851.00
2022-07-29T00:43:22.694Z,100850.24
2022-07-29T00:45:53.682Z,100851.05
2022-07-29T00:48:24.351Z,100848.20
2022-07-29T00:50:55.157Z,100849.33
2022-07-29T00:53:25.941Z,100852.48
2022-07-29T00:55:58.154Z,100847.80
2022-07-29T00:58:28.797Z,100847.55
2022-07-29T01:00:59.540Z,100851.45
2022-07-29T01:03:30.324Z,100850.92
2022-07-29T01:06:00.968Z,100855.59
2022-07-29T01:08:31.701Z,100854.09
2022-07-29T01:11:02.505Z,100854.93
2022-07-29T01:13:34.455Z,100856.48
2022-07-29T01:16:05.898Z,100862.52
2022-07-29T01:18:37.860Z,100863.71
2022-07-29T01:21:27.919Z,100858.89
2022-07-29T01:24:05.018Z,100855.80
2022-07-29T01:26:37.694Z,100856.05
2022-07-29T01:29:12.417Z,100852.08
2022-07-29T01:31:58.629Z,100848.16
2022-07-29T01:34:36.131Z,100846.23
2022-07-29T01:37:09.077Z,100846.88
2022-07-29T01:39:40.035Z,100847.20
2022-07-29T01:42:13.215Z,100840.55
2022-07-29T01:44:44.473Z,100838.97
2022-07-29T01:47:16.537Z,100836.36
2022-07-29T01:49:49.085Z,100834.77
2022-07-29T01:52:21.596Z,100831.17
2022-07-29T01:54:53.593Z,100831.64
2022-07-29T01:57:26.546Z,100826.41
2022-07-29T01:59:57.369Z,100827.33
2022-07-29T02:02:28.077Z,100829.50
2022-07-29T02:04:58.883Z,100828.36
2022-07-29T02:07:30.695Z,100831.58
2022-07-29T02:10:01.346Z,100836.95
2022-07-29T02:12:32.021Z,100836.22
2022-07-29T02:15:03.348Z,100834.42
2022-07-29T02:17:35.656Z,100835.88
2022-07-29T02:20:10.801Z,100836.11
2022-07-29T02:22:41.723Z,100832.10
2022-07-29T02:25:14.079Z,100833.39
2022-07-29T02:27:45.169Z,100836.55
2022-07-29T02:30:15.992Z,100836.50
2022-07-29T02:32:47.090Z,100834.41
2022-07-29T02:35:18.011Z,100832.81
2022-07-29T02:38:09.412Z,100830.73
2022-07-29T02:40:40.475Z,100828.56
2022-07-29T02:43:11.151Z,100826.67
2022-07-29T02:45:41.806Z,100830.45
2022-07-29T02:48:13.044Z,100832.70
2022-07-29T02:50:45.121Z,100838.01
2022-07-29T02:53:17.354Z,100841.52
2022-07-29T02:55:48.565Z,100836.86
2022-07-29T02:58:22.057Z,100834.38
2022-07-29T03:00:52.857Z,100834.32
2022-07-29T03:03:23.510Z,100824.73
2022-07-29T03:05:54.832Z,100823.81
2022-07-29T03:08:25.592Z,100821.83
2022-07-29T03:10:56.256Z,100827.20
2022-07-29T03:13:26.886Z,100825.66
2022-07-29T03:15:57.593Z,100829.30
2022-07-29T03:18:28.357Z,100835.40
2022-07-29T03:20:59.089Z,100841.24
2022-07-29T03:23:33.238Z,100844.13
2022-07-29T03:26:07.636Z,100849.62
2022-07-29T03:28:38.286Z,100848.42
2022-07-29T03:31:10.551Z,100847.71
2022-07-29T03:33:41.189Z,100854.94
2022-07-29T03:36:12.082Z,100854.12
2022-07-29T03:38:42.711Z,100856.17
2022-07-29T03:41:13.514Z,100856.29
2022-07-29T03:43:49.693Z,100853.39
2022-07-29T03:46:20.692Z,100855.55
2022-07-29T03:48:51.550Z,100860.98
2022-07-29T03:51:33.079Z,100865.20
2022-07-29T03:54:09.824Z,100869.09
2022-07-29T03:56:42.212Z,100874.70
2022-07-29T03:59:12.827Z,100872.08
2022-07-29T04:01:43.602Z,100873.20
2022-07-29T04:04:14.587Z,100874.19
2022-07-29T04:06:46.066Z,100876.02
2022-07-29T04:09:19.171Z,100873.93
2022-07-29T04:12:03.565Z,100875.73
2022-07-29T04:14:35.215Z,100875.89
2022-07-29T04:17:06.258Z,100878.30
2022-07-29T04:19:36.904Z,100878.30
2022-07-29T04:22:07.588Z,100882.27
2022-07-29T04:24:38.242Z,100879.35
2022-07-29T04:27:08.981Z,100883.27
2022-07-29T04:29:56.924Z,100882.80
2022-07-29T04:32:28.451Z,100880.91
2022-07-29T04:34:59.117Z,100883.30
2022-07-29T04:37:29.819Z,100882.88
2022-07-29T04:40:00.561Z,100878.33
2022-07-29T04:42:31.209Z,100878.98
2022-07-29T04:45:01.850Z,100880.15
2022-07-29T04:47:32.634Z,100881.48
2022-07-29T04:50:03.360Z,100885.56
2022-07-29T04:52:34.008Z,100883.59
2022-07-29T04:55:05.260Z,100882.99
2022-07-29T04:57:35.931Z,100888.19
2022-07-29T05:00:07.843Z,100886.73
2022-07-29T05:02:38.567Z,100887.84
2022-07-29T05:05:09.801Z,100888.98
2022-07-29T05:07:40.452Z,100885.52
2022-07-29T05:10:12.910Z,100886.83
2022-07-29T05:12:43.631Z,100887.68
2022-07-29T05:15:14.264Z,100890.28
2022-07-29T05:17:45.074Z,100890.52
2022-07-29T05:20:15.694Z,100892.31
2022-07-29T05:22:46.404Z,100897.45
2022-07-29T05:25:17.081Z,100899.24
2022-07-29T05:27:47.783Z,100903.19
2022-07-29T05:30:21.795Z,100903.80
2022-07-29T05:32:52.661Z,100906.02
2022-07-29T05:35:23.680Z,100905.75
2022-07-29T05:37:54.330Z,100907.70
2022-07-29T05:40:25.196Z,100911.20
2022-07-29T05:42:55.873Z,100912.33
2022-07-29T05:45:26.693Z,100909.08
2022-07-29T05:47:58.287Z,100908.69
2022-07-29T05:50:28.976Z,100908.67
2022-07-29T05:52:59.761Z,100911.48
2022-07-29T05:55:49.541Z,100909.06
2022-07-29T05:58:20.284Z,100907.98
2022-07-29T06:00:51.131Z,100909.91
2022-07-29T06:03:21.819Z,100907.23
2022-07-29T06:05:52.439Z,100910.29
2022-07-29T06:08:23.102Z,100912.64
2022-07-29T06:10:53.744Z,100917.27
2022-07-29T06:13:24.473Z,100912.95
2022-07-29T06:15:55.336Z,100913.00
2022-07-29T06:18:26.042Z,100912.77
2022-07-29T06:20:56.786Z,100909.19
2022-07-29T06:23:27.488Z,100906.27
2022-07-29T06:25:58.078Z,100905.67
2022-07-29T06:28:29.293Z,100902.30
2022-07-29T06:31:00.065Z,100904.16
2022-07-29T06:33:30.853Z,100902.81
2022-07-29T06:36:01.874Z,100902.34
2022-07-29T06:38:34.342Z,100905.59
2022-07-29T06:41:13.654Z,100902.48
2022-07-29T06:43:50.629Z,100901.13
2022-07-29T06:46:24.046Z,100905.45
2022-07-29T06:48:55.320Z,100908.36
2022-07-29T06:51:26.215Z,100906.23
2022-07-29T06:54:02.974Z,100902.42
2022-07-29T06:56:38.685Z,100901.57
2022-07-29T06:59:11.398Z,100897.66
2022-07-29T07:01:42.948Z,100896.33
2022-07-29T07:04:14.787Z,100892.59
2022-07-29T07:06:46.083Z,100894.98
2022-07-29T07:09:16.723Z,100898.03
2022-07-29T07:11:49.543Z,100893.64
2022-07-29T07:14:21.616Z,100895.20
2022-07-29T07:16:52.811Z,100889.61
2022-07-29T07:19:25.619Z,100890.27
2022-07-29T07:21:56.313Z,100887.47
2022-07-29T07:24:26.992Z,100886.23
2022-07-29T07:26:57.607Z,100883.34
2022-07-29T07:29:28.285Z,100888.63
2022-07-29T07:32:01.221Z,100881.13
2022-07-29T07:34:32.339Z,100883.42
2022-07-29T07:37:03.006Z,100876.13
2022-07-29T07:39:33.716Z,100879.77
2022-07-29T07:42:04.500Z,100879.67
2022-07-29T07:44:51.311Z,100883.85
2022-07-29T07:47:27.964Z,100883.62
2022-07-29T07:49:58.963Z,100879.88
2022-07-29T07:52:29.633Z,100884.23
2022-07-29T07:55:00.326Z,100883.07
2022-07-29T07:57:31.070Z,100883.98
2022-07-29T08:00:01.726Z,100888.34
2022-07-29T08:02:32.527Z,100887.50
2022-07-29T08:05:03.320Z,100886.27
2022-07-29T08:07:34.017Z,100892.11
2022-07-29T08:10:04.944Z,100888.83
2022-07-29T08:12:35.718Z,100891.71
2022-07-29T08:15:08.746Z,100893.40
2022-07-29T08:17:39.393Z,100891.77
2022-07-29T08:20:10.606Z,100892.33
2022-07-29T08:22:41.439Z,100891.61
2022-07-29T08:25:12.277Z,100886.66
2022-07-29T08:27:47.707Z,100888.38
2022-07-29T08:30:18.500Z,100887.91
2022-07-29T08:32:54.324Z,100883.22
2022-07-29T08:35:26.087Z,100883.14
2022-07-29T08:37:57.936Z,100879.31
2022-07-29T08:40:32.051Z,100875.11
2022-07-29T08:43:08.109Z,100875.77
2022-07-29T08:45:44.745Z,100874.38
2022-07-29T08:48:19.730Z,100876.75
2022-07-29T08:50:50.934Z,100869.79
2022-07-29T08:53:21.654Z,100866.08
2022-07-29T08:55:52.412Z,100862.95
2022-07-29T08:58:25.142Z,100861.82
2022-07-29T09:00:58.340Z,100860.41
2022-07-29T09:03:32.851Z,100859.29
2022-07-29T09:06:03.631Z,100863.41
2022-07-29T09:08:35.132Z,100862.98
2022-07-29T09:11:05.915Z,100864.02
2022-07-29T09:13:37.057Z,100862.33
2022-07-29T09:16:09.574Z,100860.00
2022-07-29T09:18:41.042Z,100861.26
2022-07-29T09:21:32.056Z,100859.76
2022-07-29T09:24:07.739Z,100860.99
2022-07-29T09:26:39.234Z,100863.80
2022-07-29T09:29:13.582Z,100862.35
2022-07-29T09:31:45.006Z,100857.30
2022-07-29T09:34:16.302Z,100862.14
2022-07-29T09:36:47.329Z,100861.77
2022-07-29T09:39:18.539Z,100857.86
2022-07-29T09:41:54.355Z,100852.64
2022-07-29T09:44:25.453Z,100848.90
2022-07-29T09:47:07.153Z,100848.07
2022-07-29T09:49:38.439Z,100847.96
2022-07-29T09:52:09.979Z,100844.75
2022-07-29T09:54:40.718Z,100844.70
2022-07-29T09:57:13.699Z,100843.31
2022-07-29T09:59:50.066Z,100835.63
2022-07-29T10:02:23.932Z,100840.46
2022-07-29T10:04:54.807Z,100838.44
2022-07-29T10:07:25.475Z,100841.51
2022-07-29T10:09:57.194Z,100840.70
2022-07-29T10:12:27.907Z,100839.33
2022-07-29T10:14:58.546Z,100834.79
2022-07-29T10:17:29.205Z,100836.73
2022-07-29T10:19:59.867Z,100837.23
2022-07-29T10:22:51.875Z,100833.65
2022-07-29T10:25:21.518Z,100829.78
2022-07-29T10:27:53.492Z,100829.02
2022-07-29T10:30:24.418Z,100828.91
2022-07-29T10:33:11.513Z,100821.90
2022-07-29T10:35:55.920Z,100822.34
2022-07-29T10:38:45.722Z,100815.16
2022-07-29T10:41:32.237Z,100810.61
2022-07-29T10:44:19.440Z,100800.80
2022-07-29T10:46:54.583Z,100797.77
2022-07-29T10:49:30.424Z,100797.97
2022-07-29T10:52:03.479Z,100794.28
2022-07-29T10:54:44.657Z,100798.98
2022-07-29T10:57:54.459Z,100795.48
2022-07-29T11:00:30.146Z,100783.54
2022-07-29T11:03:04.659Z,100783.16
2022-07-29T11:09:07.835Z,100779.09
2022-07-29T11:11:44.180Z,100770.13
2022-07-29T11:14:26.659Z,100771.29
2022-07-29T11:17:06.391Z,100769.59
2022-07-29T11:19:45.679Z,100767.30
2022-07-29T11:25:50.156Z,100760.23
2022-07-29T11:28:13.552Z,100755.05
2022-07-29T11:30:51.778Z,100758.95
2022-07-29T11:33:54.113Z,100759.48
2022-07-29T11:36:28.299Z,100754.07
2022-07-29T11:39:15.053Z,100754.33
2022-07-29T11:41:45.984Z,100748.88
2022-07-29T11:44:18.132Z,100743.33
2022-07-29T11:46:50.088Z,100741.48
2022-07-29T11:49:31.665Z,100735.68
2022-07-29T11:52:04.282Z,100736.23
2022-07-29T11:54:57.476Z,100730.59
2022-07-29T11:57:36.337Z,100721.05
2022-07-29T12:00:12.137Z,100722.31
2022-07-29T12:02:48.216Z,100727.98
2022-07-29T12:05:35.838Z,100722.31
2022-07-29T12:08:12.766Z,100723.79
2022-07-29T12:10:46.977Z,100722.70
2022-07-29T12:13:19.554Z,100714.64
2022-07-29T12:16:00.105Z,100710.32
2022-07-29T12:18:31.138Z,100708.42
2022-07-29T12:21:04.964Z,100702.74
2022-07-29T12:23:36.117Z,100696.90
2022-07-29T12:26:10.545Z,100688.61
2022-07-29T12:28:41.598Z,100684.81
2022-07-29T12:31:44.077Z,100684.56
2022-07-29T12:34:07.720Z,100684.08
2022-07-29T12:36:38.483Z,100685.00
2022-07-29T12:39:10.218Z,100681.52
2022-07-29T12:41:40.981Z,100676.25
2022-07-29T12:44:11.612Z,100674.10
2022-07-29T12:46:42.296Z,100665.34
2022-07-29T12:49:13.142Z,100658.21
2022-07-29T12:51:43.843Z,100652.47
2022-07-29T12:54:15.357Z,100647.35
2022-07-29T12:56:46.489Z,100640.20
2022-07-29T12:59:18.934Z,100638.54
2022-07-29T13:01:50.525Z,100637.67
2022-07-29T13:04:28.775Z,100635.02
2022-07-29T13:07:04.431Z,100631.02
2022-07-29T13:09:42.502Z,100628.73
2022-07-29T13:12:13.976Z,100623.48
2022-07-29T13:14:46.980Z,100623.36
2022-07-29T13:17:18.212Z,100623.83
2022-07-29T13:19:50.799Z,100623.97
2022-07-29T13:22:22.130Z,100620.90
2022-07-29T13:24:53.899Z,100616.59
2022-07-29T13:27:25.331Z,100615.48
2022-07-29T13:29:57.628Z,100617.36
2022-07-29T13:32:29.131Z,100618.91
2022-07-29T13:35:04.973Z,100615.36
2022-07-29T13:37:39.323Z,100621.78
2022-07-29T13:40:10.813Z,100623.01
2022-07-29T13:42:41.959Z,100623.83
2022-07-29T13:45:13.204Z,100619.39
2022-07-29T13:47:49.232Z,100613.14
2022-07-29T13:50:20.306Z,100613.53
2022-07-29T13:52:51.946Z,100611.48
2022-07-29T13:55:22.622Z,100613.45
2022-07-29T13:57:53.403Z,100608.04
2022-07-29T14:00:24.778Z,100609.36
2022-07-29T14:02:55.529Z,100614.39
2022-07-29T14:05:26.691Z,100611.16
2022-07-29T14:07:57.335Z,100608.01
2022-07-29T14:10:28.107Z,100613.10
2022-07-29T14:12:58.777Z,100609.75
2022-07-29T14:15:29.479Z,100611.63
2022-07-29T14:18:00.264Z,100611.80
2022-07-29T14:20:31.808Z,100613.25
2022-07-29T14:23:02.546Z,100615.25
2022-07-29T14:25:33.701Z,100615.05
2022-07-29T14:28:04.644Z,100608.64
2022-07-29T14:30:35.373Z,100605.85
2022-07-29T14:33:06.105Z,100608.15
2022-07-29T14:35:36.763Z,100606.85
2022-07-29T14:38:07.414Z,100608.18
2022-07-29T14:40:38.308Z,100592.83
2022-07-29T14:43:09.097Z,100594.61
2022-07-29T14:45:39.767Z,100597.45
2022-07-29T14:48:12.607Z,100595.71
2022-07-29T14:50:43.219Z,100596.83
2022-07-29T14:53:14.680Z,100592.45
2022-07-29T14:55:45.389Z,100587.45
2022-07-29T14:58:16.755Z,100583.92
2022-07-29T15:00:47.679Z,100580.73
2022-07-29T15:03:23.813Z,100580.04
2022-07-29T15:05:55.120Z,100582.70
2022-07-29T15:08:26.447Z,100584.11
2022-07-29T15:10:58.679Z,100582.39
2022-07-29T15:13:29.350Z,100582.89
2022-07-29T15:16:00.415Z,100584.99
2022-07-29T15:18:31.347Z,100583.27
2022-07-29T15:21:03.490Z,100577.05
2022-07-29T15:23:34.159Z,100574.91
2022-07-29T15:26:04.820Z,100569.73
2022-07-29T15:28:35.513Z,100574.45
2022-07-29T15:31:06.219Z,100570.16
2022-07-29T15:33:36.877Z,100567.45
2022-07-29T15:36:08.153Z,100566.47
2022-07-29T15:38:41.619Z,100563.77
2022-07-29T15:41:15.609Z,100558.64
2022-07-29T15:43:48.537Z,100555.59
2022-07-29T15:46:37.596Z,100557.32
2022-07-29T15:49:08.740Z,100555.29
2022-07-29T15:51:39.720Z,100554.65
2022-07-29T15:54:10.445Z,100556.40
2022-07-29T15:56:41.162Z,100554.77
2022-07-29T15:59:11.831Z,100556.91
2022-07-29T16:01:53.445Z,100557.34
2022-07-29T16:04:24.252Z,100559.05
2022-07-29T16:06:55.265Z,100558.21
2022-07-29T16:09:26.422Z,100560.25
2022-07-29T16:11:57.074Z,100561.72
2022-07-29T16:14:28.071Z,100562.45
2022-07-29T16:17:02.093Z,100561.08
2022-07-29T16:19:33.177Z,100561.70
2022-07-29T16:22:04.011Z,100563.82
2022-07-29T16:24:34.766Z,100565.69
2022-07-29T16:27:05.604Z,100570.70
2022-07-29T16:29:37.611Z,100568.00
2022-07-29T16:32:08.671Z,100571.22
2022-07-29T16:34:40.125Z,100577.16
2022-07-29T16:37:10.811Z,100581.43
2022-07-29T16:39:41.631Z,100583.60
2022-07-29T16:42:25.820Z,100583.80
2022-07-29T16:45:03.031Z,100579.46
2022-07-29T16:47:33.779Z,100580.19
2022-07-29T16:50:05.709Z,100579.87
2022-07-29T16:52:37.784Z,100582.84
2022-07-29T16:55:09.567Z,100590.64
2022-07-29T16:57:42.014Z,100587.98
2022-07-29T17:00:14.001Z,100589.19
2022-07-29T17:02:44.684Z,100592.50
2022-07-29T17:05:15.988Z,100591.21
2022-07-29T17:07:46.706Z,100594.15
2022-07-29T17:10:17.351Z,100596.22
2022-07-29T17:12:48.054Z,100594.36
2022-07-29T17:15:19.039Z,100596.52
2022-07-29T17:17:56.402Z,100599.30
2022-07-29T17:20:28.071Z,100600.38
2022-07-29T17:23:00.134Z,100598.70
2022-07-29T17:25:30.912Z,100602.10
2022-07-29T17:28:01.704Z,100601.52
2022-07-29T17:30:32.572Z,100603.14
2022-07-29T17:33:03.253Z,100610.04
2022-07-29T17:35:51.414Z,100608.42
2022-07-29T17:38:22.082Z,100608.64
2022-07-29T17:40:52.695Z,100604.82
2022-07-29T17:43:23.448Z,100610.05
2022-07-29T17:45:59.336Z,100612.29
2022-07-29T17:48:30.255Z,100610.30
2022-07-29T17:51:00.920Z,100611.15
2022-07-29T17:53:31.498Z,100609.33
2022-07-29T17:56:02.315Z,100611.66
2022-07-29T17:58:33.115Z,100612.96
2022-07-29T18:01:03.796Z,100617.60
2022-07-29T18:03:34.477Z,100615.67
2022-07-29T18:06:08.362Z,100619.66
2022-07-29T18:08:39.218Z,100617.55
2022-07-29T18:11:09.945Z,100622.16
2022-07-29T18:13:45.752Z,100626.23
2022-07-29T18:16:16.561Z,100631.65
2022-07-29T18:18:47.506Z,100637.61
2022-07-29T18:21:18.223Z,100640.42
2022-07-29T18:24:09.616Z,100641.19
2022-07-29T18:26:40.730Z,100641.98
2022-07-29T18:29:12.527Z,100643.65
2022-07-29T18:31:43.181Z,100643.68
2022-07-29T18:34:13.961Z,100647.99
2022-07-29T18:36:45.978Z,100655.42
2022-07-29T18:39:21.018Z,100662.77
2022-07-29T18:41:52.086Z,100669.40
2022-07-29T18:44:22.991Z,100676.41
2022-07-29T18:46:54.506Z,100676.92
2022-07-29T18:49:25.231Z,100688.29
2022-07-29T18:51:57.075Z,100690.93
2022-07-29T18:54:27.726Z,100704.13
2022-07-29T18:56:58.656Z,100706.14
2022-07-29T18:59:30.671Z,100713.32
2022-07-29T19:02:01.435Z,100718.85
2022-07-29T19:04:32.187Z,100725.20
2022-07-29T19:07:03.640Z,100728.85
2022-07-29T19:09:34.642Z,100737.80
2022-07-29T19:12:14.528Z,100743.58
2022-07-29T19:14:45.238Z,100741.08
2022-07-29T19:17:15.924Z,100742.41
2022-07-29T19:19:46.667Z,100739.80
2022-07-29T19:22:17.377Z,100741.27
2022-07-29T19:24:48.185Z,100745.13
2022-07-29T19:27:19.044Z,100748.23
2022-07-29T19:29:49.731Z,100747.75
2022-07-29T19:32:24.979Z,100750.62
2022-07-29T19:35:13.972Z,100748.36
2022-07-29T19:37:44.688Z,100750.77
2022-07-29T19:40:16.450Z,100756.23
2022-07-29T19:42:48.349Z,100755.28
2022-07-29T19:45:19.466Z,100755.88
2022-07-29T19:47:50.217Z,100751.33
2022-07-29T19:50:20.982Z,100752.98
2022-07-29T19:52:51.771Z,100753.31
2022-07-29T19:55:23.631Z,100759.86
2022-07-29T19:57:54.329Z,100761.80
2022-07-29T20:00:26.136Z,100761.20
2022-07-29T20:02:57.546Z,100760.12
2022-07-29T20:05:28.504Z,100761.85
2022-07-29T20:07:59.429Z,100770.59
2022-07-29T20:10:30.189Z,100772.76
2022-07-29T20:13:00.809Z,100778.02
2022-07-29T20:15:31.587Z,100771.63
2022-07-29T20:18:02.482Z,100775.10
2022-07-29T20:20:33.187Z,100771.84
2022-07-29T20:23:03.905Z,100766.92
2022-07-29T20:25:34.536Z,100766.91
2022-07-29T20:28:05.532Z,100764.36
2022-07-29T20:30:36.166Z,100763.77
2022-07-29T20:33:09.395Z,100769.72
2022-07-29T20:35:41.129Z,100770.63
2022-07-29T20:38:16.294Z,100773.23
2022-07-29T20:40:49.875Z,100775.96
2022-07-29T20:43:20.527Z,100781.27
2022-07-29T20:45:51.151Z,100780.72
2022-07-29T20:48:21.961Z,100773.34
2022-07-29T20:50:53.124Z,100774.36
2022-07-29T20:53:23.958Z,100772.72
2022-07-29T20:55:55.222Z,100770.97
2022-07-29T20:58:25.901Z,100769.69
2022-07-29T21:00:56.632Z,100773.10
2022-07-29T21:03:27.385Z,100774.43
2022-07-29T21:05:58.039Z,100773.80
2022-07-29T21:08:29.032Z,100778.36
2022-07-29T21:10:59.655Z,100779.66
2022-07-29T21:13:30.418Z,100780.63
2022-07-29T21:16:03.472Z,100780.66
2022-07-29T21:18:37.829Z,100781.13
2022-07-29T21:21:09.045Z,100778.01
2022-07-29T21:23:39.756Z,100778.63
2022-07-29T21:26:12.983Z,100780.20
2022-07-29T21:28:44.009Z,100777.07
2022-07-29T21:31:15.028Z,100780.98
2022-07-29T21:33:46.291Z,100780.00
2022-07-29T21:36:46.481Z,100783.05
2022-07-29T21:39:08.165Z,100791.59
2022-07-29T21:41:38.879Z,100789.20
2022-07-29T21:44:09.557Z,100790.93
2022-07-29T21:46:40.244Z,100787.38
2022-07-29T21:49:10.957Z,100791.41
2022-07-29T21:51:41.663Z,100794.45
2022-07-29T21:54:12.577Z,100796.99
2022-07-29T21:56:44.805Z,100798.81
2022-07-29T21:59:22.169Z,100803.97
2022-07-29T22:01:53.026Z,100804.57
2022-07-29T22:04:23.971Z,100801.32
2022-07-29T22:06:54.659Z,100805.39
2022-07-29T22:09:25.507Z,100803.67
2022-07-29T22:11:56.179Z,100803.51
2022-07-29T22:14:27.174Z,100805.14
2022-07-29T22:16:58.466Z,100809.95
2022-07-29T22:19:30.298Z,100806.48
2022-07-29T22:22:01.027Z,100808.15
2022-07-29T22:24:31.730Z,100807.40
2022-07-29T22:27:02.628Z,100809.66
2022-07-29T22:29:33.545Z,100810.50
2022-07-29T22:32:04.203Z,100809.77
2022-07-29T22:34:37.886Z,100809.34
2022-07-29T22:37:08.804Z,100807.23
2022-07-29T22:39:39.518Z,100804.29
2022-07-29T22:42:10.279Z,100809.44
2022-07-29T22:44:41.025Z,100803.58
2022-07-29T22:47:11.687Z,100801.44
2022-07-29T22:49:42.406Z,100798.13
2022-07-29T22:52:13.038Z,100794.27
2022-07-29T22:54:46.067Z,100788.27
2022-07-29T22:57:16.665Z,100785.71
2022-07-29T22:59:47.372Z,100784.23
2022-07-29T23:02:18.039Z,100779.57
2022-07-29T23:04:48.823Z,100775.27
2022-07-29T23:07:19.639Z,100770.67
2022-07-29T23:09:50.332Z,100768.97
2022-07-29T23:12:20.972Z,100767.73
2022-07-29T23:14:51.742Z,100768.80
2022-07-29T23:17:22.443Z,100768.81
2022-07-29T23:19:53.181Z,100770.68
2022-07-29T23:22:23.951Z,100769.58
2022-07-29T23:24:54.645Z,100767.60
2022-07-29T23:27:25.664Z,100767.45
2022-07-29T23:29:56.296Z,100768.46
2022-07-29T23:32:26.853Z,100767.11
2022-07-29T23:34:57.624Z,100771.24
2022-07-29T23:37:28.310Z,100769.42
2022-07-29T23:39:59.037Z,100772.77
2022-07-29T23:42:29.749Z,100768.81
2022-07-29T23:45:00.492Z,100772.33
2022-07-29T23:47:31.238Z,100766.70
2022-07-29T23:50:01.973Z,100765.85
2022-07-29T23:52:32.599Z,100771.53
2022-07-29T23:55:37.168Z,100778.16
2022-07-29T23:57:54.406Z,100780.69
